createdAt,value
2022-12-03T00:01:24.157Z,19.63
2022-12-03T00:03:51.710Z,18.14
2022-12-03T00:06:20.725Z,20.18
2022-12-03T00:08:48.680Z,19.50
2022-12-03T00:11:16.585Z,18.06
2022-12-03T00:13:44.010Z,19.60
2022-12-03T00:16:11.479Z,19.71
2022-12-03T00:18:38.932Z,19.56
2022-12-03T00:21:07.214Z,18.95
2022-12-03T00:23:41.806Z,19.35
2022-12-03T00:26:10.084Z,19.94
2022-12-03T00:28:37.510Z,19.49
2022-12-03T00:31:05.282Z,19.05
2022-12-03T00:33:32.762Z,19.67
2022-12-03T00:36:00.294Z,19.29
2022-12-03T00:38:27.769Z,18.68
2022-12-03T00:40:56.685Z,19.41
2022-12-03T00:43:24.208Z,18.77
2022-12-03T00:45:52.555Z,18.75
2022-12-03T00:48:19.978Z,19.51
2022-12-03T00:50:47.416Z,19.73
2022-12-03T00:53:14.868Z,19.89
2022-12-03T00:55:42.299Z,19.67
2022-12-03T00:58:11.761Z,19.14
2022-12-03T01:00:39.161Z,20.08
2022-12-03T01:03:06.666Z,19.32
2022-12-03T01:05:34.148Z,19.33
2022-12-03T01:08:01.687Z,19.52
2022-12-03T01:10:29.962Z,19.95
2022-12-03T01:12:57.393Z,18.87
2022-12-03T01:15:26.337Z,18.08
2022-12-03T01:17:53.942Z,19.47
2022-12-03T01:20:21.820Z,18.46
2022-12-03T01:22:49.343Z,19.62
2022-12-03T01:25:16.900Z,19.31
2022-12-03T01:27:44.381Z,19.13
2022-12-03T01:30:13.282Z,19.92
2022-12-03T01:32:42.200Z,19.93
2022-12-03T01:35:09.781Z,19.97
2022-12-03T01:37:37.833Z,19.54
2022-12-03T01:40:08.035Z,19.30
2022-12-03T01:42:40.913Z,19.77
2022-12-03T01:45:14.186Z,19.41
2022-12-03T01:47:43.170Z,19.73
2022-12-03T01:50:21.002Z,19.53
2022-12-03T01:52:48.682Z,20.22
2022-12-03T01:55:20.935Z,18.25
2022-12-03T01:57:51.549Z,20.27
2022-12-03T02:00:21.105Z,20.09
2022-12-03T02:02:53.481Z,20.38
2022-12-03T02:05:22.926Z,20.00
2022-12-03T02:07:50.834Z,19.23
2022-12-03T02:10:22.083Z,20.00
2022-12-03T02:12:54.136Z,20.26
2022-12-03T02:15:22.235Z,19.09
2022-12-03T02:17:51.477Z,20.04
2022-12-03T02:20:19.447Z,16.80
2022-12-03T02:22:54.037Z,17.92
2022-12-03T02:25:24.945Z,18.54
2022-12-03T02:27:54.769Z,20.10
2022-12-03T02:30:26.513Z,20.06
2022-12-03T02:32:54.825Z,17.67
2022-12-03T02:35:24.354Z,19.31
2022-12-03T02:37:57.303Z,20.63
2022-12-03T02:40:29.211Z,20.04
2022-12-03T02:43:00.009Z,20.38
2022-12-03T02:45:31.051Z,19.97
2022-12-03T02:48:01.553Z,19.95
2022-12-03T02:50:32.856Z,19.57
2022-12-03T02:53:02.828Z,19.51
2022-12-03T02:55:37.122Z,20.00
2022-12-03T02:58:06.007Z,20.20
2022-12-03T03:00:33.877Z,19.00
2022-12-03T03:03:03.358Z,20.08
2022-12-03T03:05:31.135Z,18.75
2022-12-03T03:08:00.105Z,19.61
2022-12-03T03:10:29.346Z,20.52
2022-12-03T03:12:59.118Z,19.87
2022-12-03T03:15:26.653Z,20.54
2022-12-03T03:17:54.206Z,18.89
2022-12-03T03:20:21.877Z,19.17
2022-12-03T03:23:14.825Z,16.79
2022-12-03T03:25:44.686Z,15.76
2022-12-03T03:28:15.063Z,16.81
2022-12-03T03:30:44.066Z,17.02
2022-12-03T03:33:13.284Z,17.52
2022-12-03T03:35:40.975Z,17.17
2022-12-03T03:38:10.040Z,18.77
2022-12-03T03:40:38.602Z,19.11
2022-12-03T03:43:07.183Z,17.68
2022-12-03T03:45:36.667Z,18.72
2022-12-03T03:48:04.522Z,19.11
2022-12-03T03:50:32.589Z,18.27
2022-12-03T03:53:02.964Z,18.14
2022-12-03T03:55:31.337Z,19.15
2022-12-03T03:57:59.091Z,18.84
2022-12-03T04:00:26.745Z,18.33
2022-12-03T04:02:56.190Z,18.56
2022-12-03T04:05:25.021Z,18.55
2022-12-03T04:07:52.767Z,19.28
2022-12-03T04:10:20.217Z,18.45
2022-12-03T04:12:47.639Z,18.43
2022-12-03T04:15:15.310Z,19.01
2022-12-03T04:17:42.752Z,17.93
2022-12-03T04:20:12.994Z,17.82
2022-12-03T04:22:41.079Z,18.34
2022-12-03T04:25:10.303Z,17.73
2022-12-03T04:27:37.747Z,18.92
2022-12-03T04:30:06.239Z,19.15
2022-12-03T04:32:33.777Z,18.17
2022-12-03T04:35:02.051Z,17.69
2022-12-03T04:37:31.038Z,19.13
2022-12-03T04:39:58.687Z,19.40
2022-12-03T04:42:26.417Z,17.79
2022-12-03T04:44:54.212Z,18.54
2022-12-03T04:47:22.611Z,18.73
2022-12-03T04:49:51.701Z,19.02
2022-12-03T04:52:20.708Z,18.60
2022-12-03T04:54:49.871Z,18.21
2022-12-03T04:57:17.612Z,18.29
2022-12-03T04:59:45.080Z,18.36
2022-12-03T05:02:13.034Z,16.02
2022-12-03T05:04:40.617Z,18.26
2022-12-03T05:07:08.205Z,19.41
2022-12-03T05:09:36.009Z,17.75
2022-12-03T05:12:05.576Z,17.72
2022-12-03T05:14:32.998Z,18.28
2022-12-03T05:17:01.080Z,15.98
2022-12-03T05:19:28.691Z,18.82
2022-12-03T05:21:57.382Z,18.49
2022-12-03T05:24:25.229Z,17.88
2022-12-03T05:26:53.432Z,16.77
2022-12-03T05:29:22.401Z,18.73
2022-12-03T05:31:50.575Z,17.05
2022-12-03T05:34:18.167Z,15.59
2022-12-03T05:36:45.706Z,15.32
2022-12-03T05:39:13.568Z,18.07
2022-12-03T05:41:41.246Z,16.90
2022-12-03T05:44:08.733Z,17.73
2022-12-03T05:46:38.065Z,16.14
2022-12-03T05:49:05.803Z,17.06
2022-12-03T05:51:33.326Z,15.95
2022-12-03T05:54:01.090Z,15.90
2022-12-03T05:56:29.142Z,15.06
2022-12-03T05:58:56.752Z,16.28
2022-12-03T06:01:24.524Z,16.48
2022-12-03T06:03:54.225Z,17.28
2022-12-03T06:06:22.218Z,17.66
2022-12-03T06:08:50.854Z,17.06
2022-12-03T06:11:18.266Z,16.93
2022-12-03T06:13:45.748Z,18.29
2022-12-03T06:16:13.328Z,16.86
2022-12-03T06:18:40.807Z,17.87
2022-12-03T06:21:09.712Z,15.59
2022-12-03T06:23:37.256Z,16.78
2022-12-03T06:26:04.868Z,17.09
2022-12-03T06:28:32.294Z,16.92
2022-12-03T06:31:00.474Z,16.17
2022-12-03T06:33:27.998Z,17.03
2022-12-03T06:35:55.488Z,16.38
2022-12-03T06:38:24.533Z,15.68
2022-12-03T06:40:51.959Z,17.45
2022-12-03T06:43:19.476Z,17.77
2022-12-03T06:45:48.048Z,18.05
2022-12-03T06:48:15.961Z,15.79
2022-12-03T06:50:43.496Z,16.80
2022-12-03T06:53:11.343Z,17.08
2022-12-03T06:55:40.526Z,16.96
2022-12-03T06:58:08.120Z,17.87
2022-12-03T07:00:36.292Z,15.44
2022-12-03T07:03:03.879Z,16.27
2022-12-03T07:05:31.634Z,17.89
2022-12-03T07:07:59.682Z,18.00
2022-12-03T07:10:27.557Z,18.39
2022-12-03T07:12:56.538Z,18.47
2022-12-03T07:15:24.166Z,18.27
2022-12-03T07:17:51.761Z,19.49
2022-12-03T07:20:19.962Z,17.26
2022-12-03T07:22:47.919Z,18.45
2022-12-03T07:25:21.253Z,17.71
2022-12-03T07:27:51.307Z,18.14
2022-12-03T07:30:20.826Z,17.76
2022-12-03T07:32:48.366Z,17.70
2022-12-03T07:35:16.278Z,17.25
2022-12-03T07:37:43.831Z,17.66
2022-12-03T07:40:12.693Z,17.34
2022-12-03T07:42:40.577Z,15.74
2022-12-03T07:45:10.074Z,16.75
2022-12-03T07:47:39.092Z,17.05
2022-12-03T07:50:08.366Z,18.06
2022-12-03T07:52:36.049Z,16.19
2022-12-03T07:55:03.804Z,16.57
2022-12-03T07:57:31.445Z,17.19
2022-12-03T07:59:59.535Z,17.25
2022-12-03T08:02:27.155Z,14.07
2022-12-03T08:04:56.454Z,15.73
2022-12-03T08:07:24.395Z,16.49
2022-12-03T08:09:52.072Z,17.20
2022-12-03T08:12:24.765Z,15.51
2022-12-03T08:14:52.989Z,15.68
2022-12-03T08:17:20.838Z,16.13
2022-12-03T08:19:50.377Z,17.93
2022-12-03T08:22:19.514Z,14.95
2022-12-03T08:24:47.062Z,18.54
2022-12-03T08:27:18.263Z,16.94
2022-12-03T08:29:46.398Z,16.70
2022-12-03T08:32:14.231Z,16.12
2022-12-03T08:34:43.734Z,17.96
2022-12-03T08:37:16.588Z,14.99
2022-12-03T08:39:47.653Z,16.85
2022-12-03T08:42:19.282Z,16.19
2022-12-03T08:44:46.913Z,16.98
2022-12-03T08:47:19.397Z,15.22
2022-12-03T08:49:54.565Z,14.95
2022-12-03T08:52:26.955Z,14.58
2022-12-03T08:54:56.408Z,17.66
2022-12-03T08:57:26.890Z,15.47
2022-12-03T08:59:58.289Z,14.78
2022-12-03T09:02:31.260Z,15.84
2022-12-03T09:05:09.205Z,17.42
2022-12-03T09:07:37.298Z,15.54
2022-12-03T09:10:08.098Z,17.35
2022-12-03T09:12:35.593Z,17.70
2022-12-03T09:15:03.106Z,14.55
2022-12-03T09:17:30.773Z,14.67
2022-12-03T09:19:58.549Z,18.11
2022-12-03T09:22:27.160Z,14.82
2022-12-03T09:24:55.336Z,16.58
2022-12-03T09:27:25.510Z,16.04
2022-12-03T09:29:53.483Z,17.14
2022-12-03T09:32:21.044Z,16.90
2022-12-03T09:34:49.263Z,17.36
2022-12-03T09:37:17.253Z,15.74
2022-12-03T09:39:44.790Z,16.77
2022-12-03T09:42:12.469Z,18.91
2022-12-03T09:44:41.720Z,16.98
2022-12-03T09:47:09.498Z,17.46
2022-12-03T09:49:38.496Z,17.97
2022-12-03T09:52:06.504Z,18.88
2022-12-03T09:54:34.533Z,18.55
2022-12-03T09:57:04.470Z,18.29
2022-12-03T09:59:34.185Z,19.85
2022-12-03T10:02:09.912Z,19.62
2022-12-03T10:04:37.780Z,17.87
2022-12-03T10:07:05.440Z,17.98
2022-12-03T10:09:33.057Z,18.70
2022-12-03T10:12:01.653Z,18.40
2022-12-03T10:14:30.652Z,19.50
2022-12-03T10:16:58.832Z,18.01
2022-12-03T10:19:31.421Z,17.71
2022-12-03T10:21:59.157Z,16.61
2022-12-03T10:24:28.519Z,17.26
2022-12-03T10:26:57.780Z,18.50
2022-12-03T10:29:33.279Z,18.89
2022-12-03T10:32:04.621Z,17.80
2022-12-03T10:34:34.791Z,19.07
2022-12-03T10:37:15.060Z,18.43
2022-12-03T10:40:00.925Z,19.15
2022-12-03T10:42:30.250Z,19.59
2022-12-03T10:45:12.256Z,19.50
2022-12-03T10:47:39.900Z,18.88
2022-12-03T10:50:17.198Z,18.25
2022-12-03T10:52:45.370Z,19.28
2022-12-03T10:55:15.066Z,19.64
2022-12-03T10:57:46.257Z,19.80
2022-12-03T11:00:16.942Z,18.21
2022-12-03T11:02:44.748Z,19.30
2022-12-03T11:05:16.762Z,18.97
2022-12-03T11:07:45.261Z,19.47
2022-12-03T11:10:18.282Z,19.82
2022-12-03T11:13:18.658Z,18.76
2022-12-03T11:15:46.636Z,19.76
2022-12-03T11:18:57.085Z,19.25
2022-12-03T11:21:26.476Z,17.77
2022-12-03T11:24:19.852Z,20.00
2022-12-03T11:27:07.725Z,19.56
2022-12-03T11:29:56.570Z,19.54
2022-12-03T11:33:06.334Z,19.16
2022-12-03T11:36:11.941Z,19.99
2022-12-03T11:38:55.553Z,19.92
2022-12-03T11:41:29.405Z,20.24
2022-12-03T11:44:34.211Z,19.32
2022-12-03T11:47:13.312Z,18.77
2022-12-03T11:49:48.577Z,18.25
2022-12-03T11:52:29.480Z,20.22
2022-12-03T11:55:02.825Z,19.00
2022-12-03T11:57:37.159Z,19.23
2022-12-03T12:00:17.789Z,19.46
2022-12-03T12:02:45.730Z,20.42
2022-12-03T12:05:22.744Z,19.83
2022-12-03T12:07:50.796Z,19.24
2022-12-03T12:10:40.480Z,19.20
2022-12-03T12:13:25.000Z,19.80
2022-12-03T12:15:54.799Z,18.95
2022-12-03T12:18:41.554Z,19.06
2022-12-03T12:21:41.964Z,17.49
2022-12-03T12:24:29.215Z,19.44
2022-12-03T12:26:57.706Z,19.58
2022-12-03T12:29:26.010Z,18.83
2022-12-03T12:32:02.563Z,20.03
2022-12-03T12:34:31.488Z,19.52
2022-12-03T12:37:00.874Z,19.19
2022-12-03T12:39:28.378Z,18.90
2022-12-03T12:41:55.930Z,19.06
2022-12-03T12:44:23.570Z,19.61
2022-12-03T12:46:53.156Z,20.47
2022-12-03T12:49:22.083Z,20.83
2022-12-03T12:51:51.077Z,19.62
2022-12-03T12:54:18.754Z,19.78
2022-12-03T12:56:49.645Z,19.93
2022-12-03T12:59:19.282Z,19.03
2022-12-03T13:01:48.514Z,18.71
2022-12-03T13:04:18.613Z,18.55
2022-12-03T13:06:48.907Z,18.54
2022-12-03T13:09:18.165Z,18.08
2022-12-03T13:11:47.590Z,19.64
2022-12-03T13:14:18.454Z,18.84
2022-12-03T13:16:46.471Z,19.25
2022-12-03T13:19:21.724Z,18.97
2022-12-03T13:21:52.754Z,18.90
2022-12-03T13:24:43.372Z,18.27
2022-12-03T13:27:22.960Z,20.16
2022-12-03T13:29:51.971Z,20.43
2022-12-03T13:32:21.688Z,18.33
2022-12-03T13:34:49.934Z,18.36
2022-12-03T13:37:22.416Z,18.49
2022-12-03T13:39:52.114Z,19.56
2022-12-03T13:42:22.465Z,19.98
2022-12-03T13:44:50.333Z,20.12
2022-12-03T13:47:21.071Z,19.86
2022-12-03T13:49:51.928Z,19.07
2022-12-03T13:52:24.110Z,19.38
2022-12-03T13:54:53.460Z,19.64
2022-12-03T13:57:22.693Z,18.51
2022-12-03T13:59:50.152Z,17.40
2022-12-03T14:02:18.271Z,19.40
2022-12-03T14:04:45.909Z,19.87
2022-12-03T14:07:13.458Z,18.87
2022-12-03T14:09:43.388Z,19.98
2022-12-03T14:12:10.801Z,19.18
2022-12-03T14:14:38.339Z,19.06
2022-12-03T14:17:06.108Z,19.43
2022-12-03T14:19:33.708Z,19.58
2022-12-03T14:22:01.260Z,18.64
2022-12-03T14:24:28.984Z,19.81
2022-12-03T14:26:58.060Z,18.35
2022-12-03T14:29:25.538Z,19.27
2022-12-03T14:31:53.762Z,18.94
2022-12-03T14:34:21.498Z,19.02
2022-12-03T14:36:51.271Z,19.91
2022-12-03T14:39:19.081Z,17.84
2022-12-03T14:41:46.653Z,19.28
2022-12-03T14:44:15.618Z,19.48
2022-12-03T14:46:43.935Z,18.48
2022-12-03T14:49:11.513Z,19.01
2022-12-03T14:51:39.047Z,19.50
2022-12-03T14:54:06.606Z,17.15
2022-12-03T14:56:34.190Z,15.30
2022-12-03T14:59:01.878Z,20.26
2022-12-03T15:01:32.182Z,18.66
2022-12-03T15:03:59.709Z,17.72
2022-12-03T15:06:27.217Z,18.54
2022-12-03T15:08:55.493Z,18.81
2022-12-03T15:11:23.154Z,17.15
2022-12-03T15:13:50.638Z,19.16
2022-12-03T15:16:18.760Z,19.88
2022-12-03T15:18:47.689Z,18.63
2022-12-03T15:21:15.185Z,19.42
2022-12-03T15:23:42.644Z,18.49
2022-12-03T15:26:10.177Z,19.11
2022-12-03T15:28:37.745Z,18.96
2022-12-03T15:31:05.569Z,20.21
2022-12-03T15:33:33.095Z,19.88
2022-12-03T15:36:02.065Z,19.35
2022-12-03T15:38:29.584Z,20.08
2022-12-03T15:40:57.104Z,20.04
2022-12-03T15:43:24.821Z,19.81
2022-12-03T15:45:52.631Z,19.98
2022-12-03T15:48:20.146Z,19.52
2022-12-03T15:50:47.657Z,19.34
2022-12-03T15:53:16.996Z,19.86
2022-12-03T15:55:44.533Z,20.56
2022-12-03T15:58:12.027Z,19.25
2022-12-03T16:00:39.566Z,18.09
2022-12-03T16:03:07.117Z,19.99
2022-12-03T16:05:34.653Z,18.42
2022-12-03T16:08:02.384Z,19.66
2022-12-03T16:10:31.392Z,19.90
2022-12-03T16:12:58.834Z,20.04
2022-12-03T16:15:27.528Z,18.57
2022-12-03T16:17:55.098Z,19.50
2022-12-03T16:20:22.586Z,19.06
2022-12-03T16:22:50.198Z,19.78
2022-12-03T16:25:17.966Z,19.58
2022-12-03T16:27:47.117Z,18.93
2022-12-03T16:30:15.482Z,15.51
2022-12-03T16:32:43.107Z,18.73
2022-12-03T16:35:10.665Z,16.04
2022-12-03T16:37:38.165Z,14.34
2022-12-03T16:40:07.128Z,17.15
2022-12-03T16:42:35.581Z,17.30
2022-12-03T16:45:08.616Z,16.94
2022-12-03T16:47:36.295Z,18.78
2022-12-03T16:50:05.260Z,17.98
2022-12-03T16:52:33.145Z,19.07
2022-12-03T16:55:00.578Z,17.39
2022-12-03T16:57:33.387Z,19.74
2022-12-03T17:00:01.535Z,19.73
2022-12-03T17:02:30.766Z,18.57
2022-12-03T17:04:58.329Z,17.91
2022-12-03T17:07:25.869Z,16.72
2022-12-03T17:09:53.520Z,19.23
2022-12-03T17:12:21.253Z,19.41
2022-12-03T17:14:48.747Z,19.05
2022-12-03T17:17:16.342Z,17.62
2022-12-03T17:19:45.314Z,19.08
2022-12-03T17:22:12.911Z,20.13
2022-12-03T17:24:40.482Z,19.16
2022-12-03T17:27:08.067Z,20.00
2022-12-03T17:29:35.522Z,18.77
2022-12-03T17:32:03.757Z,19.81
2022-12-03T17:34:31.270Z,18.45
2022-12-03T17:37:00.221Z,19.22
2022-12-03T17:39:28.011Z,19.14
2022-12-03T17:41:55.597Z,18.00
2022-12-03T17:44:23.114Z,18.68
2022-12-03T17:46:51.204Z,19.56
2022-12-03T17:49:18.846Z,19.60
2022-12-03T17:51:46.434Z,19.76
2022-12-03T17:54:15.400Z,19.00
2022-12-03T17:56:42.901Z,19.01
2022-12-03T17:59:10.599Z,19.40
2022-12-03T18:01:38.409Z,18.49
2022-12-03T18:04:06.298Z,20.34
2022-12-03T18:06:34.277Z,19.43
2022-12-03T18:09:02.552Z,18.77
2022-12-03T18:11:31.886Z,16.48
2022-12-03T18:13:59.474Z,19.63
2022-12-03T18:16:29.261Z,19.52
2022-12-03T18:19:00.888Z,20.24
2022-12-03T18:21:32.374Z,19.81
2022-12-03T18:24:00.080Z,18.93
2022-12-03T18:26:28.161Z,19.94
2022-12-03T18:28:57.251Z,19.96
2022-12-03T18:31:24.979Z,20.53
2022-12-03T18:33:52.625Z,19.86
2022-12-03T18:36:23.191Z,17.87
2022-12-03T18:38:53.563Z,20.08
2022-12-03T18:41:23.504Z,18.02
2022-12-03T18:43:52.218Z,19.56
2022-12-03T18:49:09.878Z,19.66
2022-12-03T18:51:37.725Z,19.52
2022-12-03T18:54:11.769Z,20.37
2022-12-03T18:56:39.450Z,20.40
2022-12-03T18:59:07.097Z,20.14
2022-12-03T19:01:36.879Z,19.45
2022-12-03T19:04:04.557Z,19.41
2022-12-03T19:06:32.614Z,20.15
2022-12-03T19:09:00.185Z,19.67
2022-12-03T19:11:28.003Z,20.21
2022-12-03T19:13:55.612Z,19.95
2022-12-03T19:16:23.900Z,20.19
2022-12-03T19:18:53.045Z,20.50
2022-12-03T19:21:20.689Z,20.29
2022-12-03T19:24:22.185Z,20.00
2022-12-03T19:26:36.341Z,19.92
2022-12-03T19:29:04.809Z,19.87
2022-12-03T19:31:32.538Z,19.08
2022-12-03T19:34:01.851Z,19.81
2022-12-03T19:36:30.794Z,20.32
2022-12-03T19:38:59.943Z,18.70
2022-12-03T19:41:29.225Z,20.46
2022-12-03T19:43:57.831Z,20.72
2022-12-03T19:46:27.747Z,20.84
2022-12-03T19:48:55.562Z,21.03
2022-12-03T19:51:34.573Z,19.72
2022-12-03T19:54:03.731Z,21.09
2022-12-03T19:56:32.079Z,20.75
2022-12-03T19:58:59.885Z,19.96
2022-12-03T20:01:29.052Z,20.43
2022-12-03T20:03:58.920Z,20.55
2022-12-03T20:06:29.493Z,19.22
2022-12-03T20:08:58.596Z,19.66
2022-12-03T20:11:28.133Z,19.83
2022-12-03T20:13:58.260Z,20.50
2022-12-03T20:16:27.434Z,20.78
2022-12-03T20:18:59.091Z,18.56
2022-12-03T20:21:30.654Z,21.26
2022-12-03T20:23:59.208Z,21.42
2022-12-03T20:26:27.352Z,21.29
2022-12-03T20:28:55.992Z,21.16
2022-12-03T20:31:26.011Z,20.83
2022-12-03T20:33:56.386Z,21.14
2022-12-03T20:36:24.887Z,21.29
2022-12-03T20:38:56.322Z,20.48
2022-12-03T20:41:23.945Z,20.40
2022-12-03T20:43:51.800Z,20.16
2022-12-03T20:46:21.225Z,20.75
2022-12-03T20:48:49.235Z,21.08
2022-12-03T20:51:18.689Z,20.92
2022-12-03T20:53:46.704Z,20.52
2022-12-03T20:56:18.780Z,20.70
2022-12-03T20:58:46.826Z,20.50
2022-12-03T21:01:16.717Z,20.62
2022-12-03T21:03:44.757Z,19.61
2022-12-03T21:06:12.417Z,20.69
2022-12-03T21:08:42.155Z,21.12
2022-12-03T21:11:11.862Z,20.26
2022-12-03T21:13:41.044Z,20.74
2022-12-03T21:16:11.040Z,21.19
2022-12-03T21:18:39.123Z,20.66
2022-12-03T21:21:07.221Z,20.26
2022-12-03T21:23:35.379Z,20.64
2022-12-03T21:26:05.363Z,20.32
2022-12-03T21:28:32.884Z,21.21
2022-12-03T21:31:03.803Z,20.50
2022-12-03T21:33:31.863Z,20.90
2022-12-03T21:36:00.167Z,20.25
2022-12-03T21:38:29.601Z,21.35
2022-12-03T21:40:57.842Z,20.25
2022-12-03T21:43:26.068Z,20.99
2022-12-03T21:45:53.653Z,20.98
2022-12-03T21:48:22.975Z,21.06
2022-12-03T21:50:58.879Z,20.48
2022-12-03T21:53:26.542Z,20.91
2022-12-03T21:55:54.251Z,20.73
2022-12-03T21:58:22.009Z,21.21
2022-12-03T22:00:49.457Z,20.38
2022-12-03T22:03:17.054Z,20.88
2022-12-03T22:05:46.731Z,21.09
2022-12-03T22:08:14.544Z,20.71
2022-12-03T22:10:42.017Z,21.00
2022-12-03T22:13:09.538Z,21.30
2022-12-03T22:15:39.104Z,20.91
2022-12-03T22:18:06.907Z,20.77
2022-12-03T22:20:34.879Z,20.83
2022-12-03T22:23:03.819Z,20.88
2022-12-03T22:25:31.279Z,21.05
2022-12-03T22:27:58.890Z,20.45
2022-12-03T22:30:26.317Z,17.94
2022-12-03T22:32:53.837Z,21.13
2022-12-03T22:35:21.493Z,20.25
2022-12-03T22:37:48.963Z,21.16
2022-12-03T22:40:18.574Z,21.06
2022-12-03T22:42:50.776Z,20.98
2022-12-03T22:45:18.683Z,20.92
2022-12-03T22:47:46.450Z,20.48
2022-12-03T22:50:13.938Z,21.33
2022-12-03T22:52:41.438Z,20.66
2022-12-03T22:55:10.165Z,20.74
2022-12-03T22:57:39.033Z,20.82
2022-12-03T23:00:09.609Z,20.81
2022-12-03T23:02:37.207Z,20.88
2022-12-03T23:05:05.319Z,20.67
2022-12-03T23:07:32.761Z,20.92
2022-12-03T23:10:00.253Z,20.88
2022-12-03T23:12:27.676Z,20.93
2022-12-03T23:14:57.433Z,22.11
2022-12-03T23:17:24.976Z,20.96
2022-12-03T23:19:52.696Z,20.75
2022-12-03T23:22:20.569Z,21.08
2022-12-03T23:24:48.079Z,20.95
2022-12-03T23:27:15.539Z,21.57
2022-12-03T23:29:43.455Z,20.11
2022-12-03T23:32:12.453Z,21.23
2022-12-03T23:34:40.041Z,21.11
2022-12-03T23:37:07.543Z,20.86
2022-12-03T23:39:35.199Z,20.72
2022-12-03T23:42:02.653Z,20.93
2022-12-03T23:44:30.185Z,20.49
2022-12-03T23:46:57.768Z,21.09
2022-12-03T23:49:27.889Z,21.39
2022-12-03T23:51:55.410Z,21.64
2022-12-03T23:54:23.210Z,21.07
2022-12-03T23:56:50.666Z,21.05
2022-12-03T23:59:18.142Z,20.83
